Hastiere-Lavaux, Belgium
Current Conditions -  °F | °C
As of 1:25 AM on Wednesday 28 Jan 2015 (Local Time) from EBFS Reporting Station
Haze Haze  
Wind Chill: 33°   Ceiling: 900
Heat Index: 37°   Visibility: 2.2mi
Dew Point: 36°   Wind: 6mph
Humidity: 93%   Direction: 230°SW
Pressure: 30.15"   Gusts: NA
Location:  50.22°N, 4.82°E
Report Text: EBFS 280025Z 23005KT 3600 BR SCT003 BKN009 BKN014 03/02 Q1021 YLO
Loading
Personal Weather Stations






























Interactive Weather Map New forecast layout! Learn more

10-Day Weather Forecast

Advertisements
Track Severe Weather on mobile